METAR AND TAF INFORMATION
METAR FOR DTMB
ADDS - METARS form results

(1217 UTC 15 October 2019)
Data provider http://aviationweather.gov/metar/data/
 
METAR text: DTMB 151200Z 34008KT 9999 FEW046 27/22 Q1017
Conditions at: DTMB (HABIB BOURGUIBA , TN) observed 1200 UTC 15 October 2019
Temperature: 27.0°C (81°F)
Dewpoint: 22.0°C (72°F) [RH = 74%]
Pressure (altimeter): 30.03 inches Hg (1017.0 mb)
Winds: from the NNW (340 degrees) at 9 MPH (8 knots; 4.1 m/s)
Visibility: 6 or more miles (10+ km)
Ceiling: at least 12,000 feet AGL
Clouds: few clouds at 4600 feet AGL
Weather: no significant weather observed at this time

METAR text: DTMB 151130Z 34008KT 8000 NSC 27/21 Q1017
Conditions at: DTMB (HABIB BOURGUIBA , TN) observed 1130 UTC 15 October 2019
Temperature: 27.0°C (81°F)
Dewpoint: 21.0°C (70°F) [RH = 70%]
Pressure (altimeter): 30.03 inches Hg (1017.0 mb)
Winds: from the NNW (340 degrees) at 9 MPH (8 knots; 4.1 m/s)
Visibility: 5 miles ( 8 km)
Ceiling: at least 12,000 feet AGL
Clouds: sky clear below 12,000 feet AGL
Weather: no significant weather observed at this time

Forecast for: DTMB (HABIB BOURGUIBA , TN)
Text: TAF DTMB 151100Z 1512/1612 35010KT 9999 SCT030
Forecast period: 1200 to 1300 UTC 15 October 2019
Forecast type: FROM: standard forecast or significant change
Winds: from the N (350 degrees) at 12 MPH (10 knots; 5.1 m/s)
Visibility: 6 or more miles 10+ km)
Ceiling: at least 12,000 feet AGL
Clouds: scattered clouds at 3000 feet AGL
Weather: no significant weather forecast for this period
Text: BECMG 1513/1515 05005KT
Forecast period: 1300 to 2200 UTC 15 October 2019
Forecast type: BECOMING: Conditions expected to become as follows by 1500 UTC 15 October 2019
Winds: from the NE (50 degrees) at 6 MPH (5 knots; 2.6 m/s)
Visibility: 6 or more miles 10+ km)
Ceiling: at least 12,000 feet AGL
Clouds: scattered clouds at 3000 feet AGL
Weather: no significant weather forecast for this period
Text: PROB40
Forecast period: 1300 to 2000 UTC 15 October 2019
Forecast type: TEMPORARY: The following changes expected for less than half the time period
Visibility: 2.49 miles (4.01 km)
Ceiling: at least 12,000 feet AGL
Clouds: few clouds at 2600 feet AGL
Weather: -TSRA  (light rain associated with thunderstorm(s))
Text: TEMPO 1513/1520 4000 -TSRA FEW026CB
Forecast period: 2200 UTC 15 October 2019 to 1200 UTC 16 October 2019
Forecast type: BECOMING: Conditions expected to become as follows by 0000 UTC 16 October 2019
Winds: from the N (350 degrees) at 12 MPH (10 knots; 5.1 m/s)
Visibility: 6 or more miles 10+ km)
Ceiling: at least 12,000 feet AGL
Clouds: scattered clouds at 3000 feet AGL
Weather: no significant weather forecast for this period

 AIRPORT MAP

 RUNWAY INFORMATION

 AIRPORT FREQUENCIES
Type APP Name BOURGUIBA Frequency 119.3 MHZ
Type ATIS Name MONASTIR A Frequency 113.1 MHZ
Type TWR Name BOURGUIBA Frequency 118.3 MHZ

 AIRPORT NEAR NAVIGATION AIDS
Type VOR-DME Name Monastir Frequency 113100 KHZ



2018 Air Astana Virtual Airline